createdAt,value
2023-01-13T00:01:29.609Z,100589.38
2023-01-13T00:03:57.662Z,100601.13
2023-01-13T00:06:26.288Z,100605.78
2023-01-13T00:08:54.366Z,100610.72
2023-01-13T00:11:22.516Z,100602.41
2023-01-13T00:13:50.111Z,100603.84
2023-01-13T00:16:18.856Z,100604.81
2023-01-13T00:18:47.106Z,100599.22
2023-01-13T00:21:18.826Z,100608.81
2023-01-13T00:23:46.933Z,100606.06
2023-01-13T00:26:23.425Z,100583.34
2023-01-13T00:28:51.464Z,100593.88
2023-01-13T00:31:21.233Z,100593.66
2023-01-13T00:33:51.137Z,100600.69
2023-01-13T00:36:20.620Z,100594.69
2023-01-13T00:38:48.150Z,100599.47
2023-01-13T00:41:18.298Z,100594.31
2023-01-13T00:43:46.862Z,100579.63
2023-01-13T00:46:17.106Z,100588.38
2023-01-13T00:48:45.657Z,100582.31
2023-01-13T00:51:17.189Z,100589.84
2023-01-13T00:53:52.076Z,100586.09
2023-01-13T00:56:34.088Z,100576.78
2023-01-13T00:59:05.813Z,100568.53
2023-01-13T01:01:33.834Z,100568.84
2023-01-13T01:04:01.358Z,100566.50
2023-01-13T01:06:29.297Z,100566.25
2023-01-13T01:08:57.329Z,100563.06
2023-01-13T01:11:27.609Z,100552.78
2023-01-13T01:13:57.491Z,100528.25
2023-01-13T01:16:27.838Z,100536.34
2023-01-13T01:18:56.651Z,100537.72
2023-01-13T01:21:26.176Z,100538.41
2023-01-13T01:23:58.808Z,100533.78
2023-01-13T01:26:27.879Z,100526.69
2023-01-13T01:28:58.014Z,100539.53
2023-01-13T01:31:31.626Z,100530.97
2023-01-13T01:34:00.764Z,100545.88
2023-01-13T01:36:30.337Z,100535.09
2023-01-13T01:38:59.382Z,100530.31
2023-01-13T01:41:29.671Z,100535.00
2023-01-13T01:44:05.975Z,100537.06
2023-01-13T01:46:40.351Z,100526.38
2023-01-13T01:49:33.501Z,100524.66
2023-01-13T01:52:06.656Z,100520.47
2023-01-13T01:54:48.900Z,100516.09
2023-01-13T01:57:23.671Z,100511.16
2023-01-13T01:59:52.766Z,100488.16
2023-01-13T02:02:20.459Z,100490.94
2023-01-13T02:04:53.490Z,100488.09
2023-01-13T02:07:25.421Z,100500.81
2023-01-13T02:09:55.597Z,100500.81
2023-01-13T02:12:30.672Z,100483.97
2023-01-13T02:15:21.137Z,100489.06
2023-01-13T02:18:12.346Z,100491.03
2023-01-13T02:21:24.160Z,100494.13
2023-01-13T02:24:37.329Z,100489.19
2023-01-13T02:27:33.894Z,100489.94
2023-01-13T02:30:32.360Z,100491.50
2023-01-13T02:33:13.911Z,100489.78
2023-01-13T02:36:11.480Z,100490.97
2023-01-13T02:38:53.226Z,100491.63
2023-01-13T02:42:15.031Z,100493.25
2023-01-13T02:44:48.220Z,100501.13
2023-01-13T02:47:20.645Z,100497.16
2023-01-13T02:49:58.475Z,100501.50
2023-01-13T02:52:40.980Z,100499.78
2023-01-13T02:55:20.169Z,100504.66
2023-01-13T02:57:48.759Z,100495.69
2023-01-13T03:00:18.717Z,100495.16
2023-01-13T03:02:48.481Z,100505.44
2023-01-13T03:05:17.434Z,100491.78
2023-01-13T03:07:45.539Z,100503.44
2023-01-13T03:10:38.031Z,100501.06
2023-01-13T03:13:29.088Z,100505.13
2023-01-13T03:16:06.255Z,100501.44
2023-01-13T03:19:03.103Z,100496.28
2023-01-13T03:21:45.369Z,100496.13
2023-01-13T03:24:40.469Z,100488.59
2023-01-13T03:27:51.323Z,100488.16
2023-01-13T03:30:27.489Z,100487.06
2023-01-13T03:33:05.031Z,100488.50
2023-01-13T03:35:42.497Z,100485.59
2023-01-13T03:38:12.664Z,100480.09
2023-01-13T03:40:48.189Z,100492.34
2023-01-13T03:43:40.695Z,100484.63
2023-01-13T03:46:16.879Z,100481.81
2023-01-13T03:48:46.971Z,100466.91
2023-01-13T03:51:20.494Z,100472.44
2023-01-13T03:53:55.368Z,100468.47
2023-01-13T03:56:31.180Z,100471.06
2023-01-13T03:59:02.370Z,100487.44
2023-01-13T04:01:41.852Z,100499.97
2023-01-13T04:04:51.739Z,100495.84
2023-01-13T04:07:49.644Z,100501.44
2023-01-13T04:10:23.706Z,100489.94
2023-01-13T04:13:04.343Z,100488.25
2023-01-13T04:15:41.040Z,100494.31
2023-01-13T04:18:18.151Z,100486.03
2023-01-13T04:20:47.559Z,100488.44
2023-01-13T04:23:16.725Z,100491.16
2023-01-13T04:25:45.544Z,100487.56
2023-01-13T04:28:13.545Z,100489.81
2023-01-13T04:30:42.121Z,100495.84
2023-01-13T04:33:10.424Z,100501.41
2023-01-13T04:35:38.367Z,100503.31
2023-01-13T04:38:09.531Z,100495.50
2023-01-13T04:40:37.209Z,100489.38
2023-01-13T04:43:05.244Z,100504.34
2023-01-13T04:45:33.276Z,100505.47
2023-01-13T04:48:00.861Z,100502.16
2023-01-13T04:50:28.546Z,100504.28
2023-01-13T04:52:56.759Z,100499.72
2023-01-13T04:55:25.246Z,100491.88
2023-01-13T04:57:53.302Z,100496.31
2023-01-13T05:00:23.029Z,100493.50
2023-01-13T05:02:52.025Z,100499.47
2023-01-13T05:05:20.461Z,100502.47
2023-01-13T05:07:48.043Z,100509.13
2023-01-13T05:10:16.008Z,100496.78
2023-01-13T05:13:05.837Z,100521.31
2023-01-13T05:15:51.891Z,100515.44
2023-01-13T05:18:19.882Z,100507.75
2023-01-13T05:20:47.530Z,100481.16
2023-01-13T05:23:33.616Z,100530.41
2023-01-13T05:26:02.256Z,100530.81
2023-01-13T05:28:34.021Z,100529.34
2023-01-13T05:31:01.810Z,100521.75
2023-01-13T05:33:29.401Z,100523.03
2023-01-13T05:35:57.005Z,100530.56
2023-01-13T05:38:27.157Z,100520.38
2023-01-13T05:41:13.076Z,100534.16
2023-01-13T05:43:40.641Z,100516.41
2023-01-13T05:46:09.932Z,100527.97
2023-01-13T05:48:40.214Z,100522.88
2023-01-13T05:51:10.029Z,100513.25
2023-01-13T05:53:37.969Z,100526.59
2023-01-13T05:56:08.106Z,100536.72
2023-01-13T05:58:35.950Z,100525.81
2023-01-13T06:01:08.023Z,100517.63
2023-01-13T06:03:36.078Z,100522.50
2023-01-13T06:06:04.690Z,100519.56
2023-01-13T06:08:32.910Z,100515.28
2023-01-13T06:11:00.653Z,100514.97
2023-01-13T06:13:28.147Z,100518.19
2023-01-13T06:16:00.234Z,100510.13
2023-01-13T06:18:28.084Z,100510.28
2023-01-13T06:20:56.176Z,100516.66
2023-01-13T06:23:24.371Z,100507.97
2023-01-13T06:26:14.651Z,100512.03
2023-01-13T06:28:43.309Z,100513.00
2023-01-13T06:31:13.273Z,100512.38
2023-01-13T06:33:49.538Z,100521.72
2023-01-13T06:36:22.470Z,100519.47
2023-01-13T06:38:56.298Z,100522.72
2023-01-13T06:41:44.353Z,100498.50
2023-01-13T06:44:12.081Z,100513.16
2023-01-13T06:46:39.771Z,100514.19
2023-01-13T06:49:07.576Z,100505.13
2023-01-13T06:51:35.150Z,100507.50
2023-01-13T06:54:02.736Z,100519.47
2023-01-13T06:56:30.284Z,100511.03
2023-01-13T06:58:57.976Z,100504.84
2023-01-13T07:01:25.739Z,100503.50
2023-01-13T07:03:53.208Z,100499.97
2023-01-13T07:06:20.659Z,100504.47
2023-01-13T07:08:48.144Z,100503.09
2023-01-13T07:11:15.677Z,100501.91
2023-01-13T07:14:01.787Z,100499.63
2023-01-13T07:16:29.360Z,100489.41
2023-01-13T07:18:57.034Z,100505.19
2023-01-13T07:21:24.871Z,100502.09
2023-01-13T07:23:52.466Z,100512.78
2023-01-13T07:26:20.172Z,100516.03
2023-01-13T07:28:47.637Z,100516.69
2023-01-13T07:31:20.975Z,100515.69
2023-01-13T07:33:48.993Z,100509.28
2023-01-13T07:36:16.512Z,100521.13
2023-01-13T07:38:44.799Z,100513.91
2023-01-13T07:41:32.865Z,100527.19
2023-01-13T07:44:05.116Z,100531.91
2023-01-13T07:46:33.932Z,100541.22
2023-01-13T07:49:01.572Z,100537.97
2023-01-13T07:51:29.182Z,100542.34
2023-01-13T07:53:57.303Z,100529.81
2023-01-13T07:56:25.120Z,100550.97
2023-01-13T07:58:53.490Z,100542.00
2023-01-13T08:01:21.252Z,100532.94
2023-01-13T08:03:49.342Z,100530.91
2023-01-13T08:06:17.282Z,100532.53
2023-01-13T08:08:44.998Z,100532.63
2023-01-13T08:11:12.722Z,100527.91
2023-01-13T08:13:43.351Z,100525.09
2023-01-13T08:16:14.123Z,100528.28
2023-01-13T08:18:44.616Z,100533.13
2023-01-13T08:21:14.788Z,100525.59
2023-01-13T08:23:44.303Z,100528.44
2023-01-13T08:26:17.443Z,100539.72
2023-01-13T08:28:47.109Z,100539.25
2023-01-13T08:31:17.042Z,100532.78
2023-01-13T08:33:44.792Z,100536.94
2023-01-13T08:36:15.575Z,100535.50
2023-01-13T08:38:43.086Z,100535.06
2023-01-13T08:41:36.618Z,100525.47
2023-01-13T08:44:05.599Z,100526.72
2023-01-13T08:46:33.119Z,100523.72
2023-01-13T08:49:00.711Z,100531.56
2023-01-13T08:51:28.227Z,100536.38
2023-01-13T08:53:55.772Z,100523.13
2023-01-13T08:56:23.319Z,100508.47
2023-01-13T08:58:50.818Z,100498.91
2023-01-13T09:01:22.935Z,100511.91
2023-01-13T09:03:50.613Z,100515.59
2023-01-13T09:06:18.152Z,100504.66
2023-01-13T09:08:46.096Z,100511.97
2023-01-13T09:11:44.601Z,100503.09
2023-01-13T09:14:12.105Z,100506.69
2023-01-13T09:16:39.563Z,100517.66
2023-01-13T09:19:07.241Z,100510.56
2023-01-13T09:21:35.482Z,100496.22
2023-01-13T09:24:03.039Z,100488.25
2023-01-13T09:26:30.513Z,100488.47
2023-01-13T09:28:57.988Z,100487.00
2023-01-13T09:31:25.601Z,100494.69
2023-01-13T09:34:11.485Z,100497.09
2023-01-13T09:36:39.201Z,100495.03
2023-01-13T09:39:06.807Z,100484.84
2023-01-13T09:42:00.539Z,100488.69
2023-01-13T09:45:07.149Z,100492.75
2023-01-13T09:47:43.630Z,100471.19
2023-01-13T09:50:14.113Z,100474.16
2023-01-13T09:52:43.380Z,100474.56
2023-01-13T09:55:31.388Z,100476.47
2023-01-13T09:57:59.126Z,100475.81
2023-01-13T10:00:38.925Z,100477.59
2023-01-13T10:03:27.701Z,100489.59
2023-01-13T10:06:04.854Z,100482.59
2023-01-13T10:08:42.114Z,100488.06
2023-01-13T10:11:36.521Z,100488.19
2023-01-13T10:14:43.278Z,100488.88
2023-01-13T10:17:41.278Z,100498.94
2023-01-13T10:20:36.171Z,100494.19
2023-01-13T10:23:38.008Z,100491.69
2023-01-13T10:26:05.429Z,100483.06
2023-01-13T10:28:33.508Z,100483.22
2023-01-13T10:31:05.304Z,100483.50
2023-01-13T10:33:32.738Z,100487.06
2023-01-13T10:36:14.331Z,100492.22
2023-01-13T10:38:46.863Z,100475.59
2023-01-13T10:41:18.002Z,100492.63
2023-01-13T10:44:09.412Z,100497.00
2023-01-13T10:46:52.920Z,100487.88
2023-01-13T10:49:38.727Z,100491.69
2023-01-13T10:52:26.363Z,100491.22
2023-01-13T10:54:55.357Z,100497.56
2023-01-13T10:57:24.043Z,100491.22
2023-01-13T10:59:53.209Z,100485.16
2023-01-13T11:02:31.366Z,100493.94
2023-01-13T11:05:03.140Z,100495.41
2023-01-13T11:07:36.226Z,100489.78
2023-01-13T11:10:24.605Z,100477.69
2023-01-13T11:13:28.405Z,100496.59
2023-01-13T11:16:11.109Z,100488.00
2023-01-13T11:19:02.481Z,100483.34
2023-01-13T11:21:39.131Z,100481.84
2023-01-13T11:24:15.529Z,100483.75
2023-01-13T11:27:07.479Z,100488.41
2023-01-13T11:30:00.988Z,100484.13
2023-01-13T11:32:35.509Z,100493.41
2023-01-13T11:35:10.012Z,100488.03
2023-01-13T11:37:43.571Z,100488.75
2023-01-13T11:40:21.205Z,100488.00
2023-01-13T11:42:51.157Z,100501.22
2023-01-13T11:45:29.291Z,100494.47
2023-01-13T11:47:59.505Z,100503.66
2023-01-13T11:50:50.795Z,100502.56
2023-01-13T11:53:29.775Z,100507.72
2023-01-13T11:56:11.653Z,100504.69
2023-01-13T11:59:20.489Z,100503.66
2023-01-13T12:02:06.393Z,100501.94
2023-01-13T12:04:40.028Z,100511.25
2023-01-13T12:07:22.874Z,100499.84
2023-01-13T12:10:10.388Z,100496.16
2023-01-13T12:13:07.531Z,100508.75
2023-01-13T12:15:41.043Z,100509.63
2023-01-13T12:18:39.570Z,100503.13
2023-01-13T12:21:21.553Z,100507.25
2023-01-13T12:24:01.053Z,100511.19
2023-01-13T12:26:32.090Z,100507.13
2023-01-13T12:29:06.686Z,100508.16
2023-01-13T12:31:38.484Z,100513.00
2023-01-13T12:34:27.481Z,100522.56
2023-01-13T12:37:13.757Z,100522.06
2023-01-13T12:40:02.365Z,100520.88
2023-01-13T12:43:05.690Z,100512.53
2023-01-13T12:45:33.611Z,100511.47
2023-01-13T12:48:01.420Z,100521.72
2023-01-13T12:50:29.287Z,100516.44
2023-01-13T12:52:58.024Z,100503.09
2023-01-13T12:55:35.722Z,100514.78
2023-01-13T12:58:03.109Z,100521.44
2023-01-13T13:00:39.948Z,100523.28
2023-01-13T13:03:18.570Z,100524.91
2023-01-13T13:05:55.827Z,100531.00
2023-01-13T13:08:35.244Z,100529.06
2023-01-13T13:11:33.424Z,100524.19
2023-01-13T13:14:03.156Z,100523.56
2023-01-13T13:16:30.623Z,100527.88
2023-01-13T13:19:22.753Z,100542.38
2023-01-13T13:22:19.099Z,100527.94
2023-01-13T13:24:49.392Z,100537.97
2023-01-13T13:27:20.762Z,100541.44
2023-01-13T13:30:06.145Z,100537.41
2023-01-13T13:33:10.672Z,100530.75
2023-01-13T13:36:16.855Z,100535.38
2023-01-13T13:39:34.884Z,100536.63
2023-01-13T13:42:31.277Z,100544.31
2023-01-13T13:45:20.220Z,100535.88
2023-01-13T13:47:47.869Z,100552.72
2023-01-13T13:50:20.944Z,100552.59
2023-01-13T13:53:06.352Z,100549.47
2023-01-13T13:55:34.362Z,100547.88
2023-01-13T13:58:01.858Z,100560.75
2023-01-13T14:00:38.176Z,100554.59
2023-01-13T14:03:30.361Z,100549.59
2023-01-13T14:06:01.142Z,100545.72
2023-01-13T14:08:37.473Z,100550.75
2023-01-13T14:11:30.996Z,100551.47
2023-01-13T14:14:14.569Z,100551.13
2023-01-13T14:16:42.059Z,100546.09
2023-01-13T14:19:35.198Z,100547.81
2023-01-13T14:22:05.078Z,100544.91
2023-01-13T14:24:33.118Z,100546.81
2023-01-13T14:27:09.325Z,100543.22
2023-01-13T14:29:37.614Z,100545.00
2023-01-13T14:32:07.352Z,100542.69
2023-01-13T14:34:39.185Z,100551.22
2023-01-13T14:37:24.230Z,100543.75
2023-01-13T14:39:51.771Z,100545.31
2023-01-13T14:42:19.667Z,100542.09
2023-01-13T14:44:50.342Z,100547.44
2023-01-13T14:47:28.156Z,100541.69
2023-01-13T14:50:19.281Z,100545.72
2023-01-13T14:52:49.273Z,100548.66
2023-01-13T14:55:16.692Z,100550.47
2023-01-13T14:57:44.213Z,100548.78
2023-01-13T15:00:14.399Z,100560.88
2023-01-13T15:02:44.777Z,100557.75
2023-01-13T15:05:30.199Z,100561.50
2023-01-13T15:08:05.443Z,100546.59
2023-01-13T15:10:48.970Z,100547.59
2023-01-13T15:13:35.720Z,100561.84
2023-01-13T15:16:14.864Z,100551.63
2023-01-13T15:18:42.689Z,100559.31
2023-01-13T15:21:10.845Z,100564.06
2023-01-13T15:23:40.085Z,100560.81
2023-01-13T15:26:19.977Z,100568.22
2023-01-13T15:28:48.163Z,100552.56
2023-01-13T15:31:16.273Z,100542.22
2023-01-13T15:33:46.004Z,100546.63
2023-01-13T15:36:37.992Z,100548.84
2023-01-13T15:39:10.052Z,100544.13
2023-01-13T15:41:55.960Z,100539.53
2023-01-13T15:44:42.192Z,100541.59
2023-01-13T15:47:14.587Z,100534.50
2023-01-13T15:49:46.185Z,100539.84
2023-01-13T15:52:22.962Z,100541.47
2023-01-13T15:54:51.680Z,100539.72
2023-01-13T15:57:30.842Z,100538.34
2023-01-13T16:00:02.610Z,100537.19
2023-01-13T16:02:34.561Z,100541.59
2023-01-13T16:05:02.124Z,100528.31
2023-01-13T16:07:30.740Z,100535.84
2023-01-13T16:09:59.642Z,100528.63
2023-01-13T16:12:27.109Z,100522.16
2023-01-13T16:14:54.604Z,100522.13
2023-01-13T16:17:25.237Z,100531.69
2023-01-13T16:19:52.705Z,100519.47
2023-01-13T16:22:20.421Z,100522.25
2023-01-13T16:24:48.475Z,100530.09
2023-01-13T16:27:19.117Z,100524.22
2023-01-13T16:29:47.488Z,100526.25
2023-01-13T16:32:15.452Z,100533.94
2023-01-13T16:34:43.418Z,100523.16
2023-01-13T16:37:25.805Z,100526.03
2023-01-13T16:39:54.747Z,100525.44
2023-01-13T16:42:22.400Z,100537.13
2023-01-13T16:44:50.842Z,100526.16
2023-01-13T16:47:19.251Z,100529.28
2023-01-13T16:49:47.619Z,100531.50
2023-01-13T16:52:15.619Z,100530.94
2023-01-13T16:54:43.053Z,100527.41
2023-01-13T16:57:13.636Z,100520.88
2023-01-13T16:59:41.177Z,100520.13
2023-01-13T17:02:16.369Z,100521.00
2023-01-13T17:04:43.868Z,100521.31
2023-01-13T17:07:17.075Z,100526.34
2023-01-13T17:09:45.029Z,100518.63
2023-01-13T17:12:12.633Z,100521.63
2023-01-13T17:14:43.550Z,100528.16
2023-01-13T17:17:23.570Z,100522.66
2023-01-13T17:19:51.974Z,100527.81
2023-01-13T17:22:21.279Z,100528.97
2023-01-13T17:24:48.969Z,100518.09
2023-01-13T17:30:52.155Z,100532.59
2023-01-13T17:33:53.152Z,100527.84
2023-01-13T17:37:22.469Z,100526.09
2023-01-13T17:40:58.056Z,100530.09
2023-01-13T17:43:48.510Z,100529.06
2023-01-13T17:47:12.117Z,100531.44
2023-01-13T17:49:54.366Z,100523.13
2023-01-13T17:52:21.836Z,100528.72
2023-01-13T17:54:49.309Z,100530.47
2023-01-13T17:57:16.848Z,100530.16
2023-01-13T17:59:44.369Z,100532.56
2023-01-13T18:02:12.749Z,100534.78
2023-01-13T18:04:40.778Z,100528.16
2023-01-13T18:07:08.563Z,100536.72
2023-01-13T18:09:38.229Z,100536.41
2023-01-13T18:12:07.135Z,100541.13
2023-01-13T18:14:35.206Z,100531.06
2023-01-13T18:17:02.792Z,100527.22
2023-01-13T18:19:48.894Z,100534.34
2023-01-13T18:22:34.947Z,100536.72
2023-01-13T18:25:22.039Z,100527.09
2023-01-13T18:27:49.707Z,100526.34
2023-01-13T18:30:20.581Z,100525.31
2023-01-13T18:32:50.581Z,100527.44
2023-01-13T18:35:18.123Z,100515.16
2023-01-13T18:37:45.631Z,100521.91
2023-01-13T18:40:13.925Z,100522.38
2023-01-13T18:42:54.937Z,100530.94
2023-01-13T18:45:25.718Z,100534.63
2023-01-13T18:47:55.409Z,100524.00
2023-01-13T18:50:23.755Z,100524.28
2023-01-13T18:52:51.961Z,100526.22
2023-01-13T18:55:20.300Z,100532.59
2023-01-13T18:57:48.218Z,100520.44
2023-01-13T19:00:19.268Z,100531.13
2023-01-13T19:02:48.102Z,100522.81
2023-01-13T19:05:15.836Z,100526.94
2023-01-13T19:07:50.392Z,100524.16
2023-01-13T19:10:18.683Z,100534.66
2023-01-13T19:12:46.201Z,100521.66
2023-01-13T19:15:13.902Z,100526.09
2023-01-13T19:17:41.457Z,100523.56
2023-01-13T19:20:11.388Z,100533.31
2023-01-13T19:22:39.178Z,100522.97
2023-01-13T19:25:06.941Z,100527.28
2023-01-13T19:27:34.632Z,100529.34
2023-01-13T19:30:02.642Z,100518.09
2023-01-13T19:32:33.638Z,100527.59
2023-01-13T19:35:01.918Z,100529.06
2023-01-13T19:37:33.777Z,100523.03
2023-01-13T19:40:01.477Z,100535.72
2023-01-13T19:42:49.503Z,100528.63
2023-01-13T19:45:26.502Z,100524.78
2023-01-13T19:47:55.381Z,100535.13
2023-01-13T19:50:25.605Z,100529.56
2023-01-13T19:52:55.181Z,100520.78
2023-01-13T19:55:23.252Z,100528.78
2023-01-13T19:57:50.748Z,100526.41
2023-01-13T20:00:20.980Z,100534.66
2023-01-13T20:02:51.945Z,100522.09
2023-01-13T20:05:22.856Z,100541.94
2023-01-13T20:07:51.206Z,100538.53
2023-01-13T20:10:20.288Z,100533.06
2023-01-13T20:12:48.102Z,100535.72
2023-01-13T20:15:16.080Z,100529.09
2023-01-13T20:17:43.832Z,100533.97
2023-01-13T20:20:12.156Z,100537.69
2023-01-13T20:22:40.252Z,100528.22
2023-01-13T20:25:09.184Z,100531.47
2023-01-13T20:27:36.967Z,100536.38
2023-01-13T20:30:09.639Z,100529.56
2023-01-13T20:32:37.647Z,100545.13
2023-01-13T20:35:06.201Z,100537.13
2023-01-13T20:37:34.785Z,100528.53
2023-01-13T20:40:06.166Z,100533.41
2023-01-13T20:42:42.565Z,100532.66
2023-01-13T20:45:11.863Z,100524.06
2023-01-13T20:47:42.624Z,100528.97
2023-01-13T20:50:13.053Z,100528.97
2023-01-13T20:52:40.588Z,100528.97
2023-01-13T20:55:09.778Z,100541.88
2023-01-13T20:57:37.401Z,100519.50
2023-01-13T21:00:05.893Z,100531.94
2023-01-13T21:02:33.682Z,100529.28
2023-01-13T21:05:01.226Z,100534.00
2023-01-13T21:07:28.761Z,100519.50
2023-01-13T21:09:57.479Z,100521.56
2023-01-13T21:12:43.555Z,100535.81
2023-01-13T21:15:18.116Z,100527.19
2023-01-13T21:18:05.593Z,100526.47
2023-01-13T21:20:34.661Z,100527.63
2023-01-13T21:23:03.492Z,100520.22
2023-01-13T21:25:33.953Z,100510.84
2023-01-13T21:28:20.524Z,100516.38
2023-01-13T21:30:48.028Z,100510.59
2023-01-13T21:33:15.542Z,100512.25
2023-01-13T21:35:43.083Z,100515.66
2023-01-13T21:38:11.509Z,100521.44
2023-01-13T21:40:39.042Z,100504.38
2023-01-13T21:43:25.105Z,100518.00
2023-01-13T21:46:11.206Z,100525.44
2023-01-13T21:48:38.705Z,100511.34
2023-01-13T21:51:08.495Z,100519.06
2023-01-13T21:53:36.014Z,100519.19
2023-01-13T21:56:03.686Z,100506.88
2023-01-13T21:58:33.575Z,100518.31
2023-01-13T22:01:02.795Z,100519.06
2023-01-13T22:03:30.723Z,100508.25
2023-01-13T22:05:58.188Z,100506.88
2023-01-13T22:08:25.812Z,100496.06
2023-01-13T22:10:59.441Z,100505.44
2023-01-13T22:13:48.369Z,100502.91
2023-01-13T22:16:16.231Z,100498.59
2023-01-13T22:18:43.873Z,100494.59
2023-01-13T22:21:11.583Z,100496.81
2023-01-13T22:23:39.293Z,100496.66
2023-01-13T22:26:10.748Z,100500.06
2023-01-13T22:28:43.122Z,100494.13
2023-01-13T22:31:16.215Z,100507.44
2023-01-13T22:33:47.282Z,100505.38
2023-01-13T22:36:18.199Z,100497.09
2023-01-13T22:38:46.013Z,100502.75
2023-01-13T22:41:13.690Z,100502.41
2023-01-13T22:43:41.432Z,100503.00
2023-01-13T22:46:11.629Z,100504.34
2023-01-13T22:48:40.969Z,100495.91
2023-01-13T22:51:14.308Z,100507.63
2023-01-13T22:53:42.828Z,100501.84
2023-01-13T22:56:17.052Z,100508.78
2023-01-13T22:58:45.053Z,100509.50
2023-01-13T23:01:17.471Z,100496.13
2023-01-13T23:03:47.986Z,100505.06
2023-01-13T23:06:16.208Z,100504.34
2023-01-13T23:08:44.118Z,100507.13
2023-01-13T23:11:14.159Z,100511.28
2023-01-13T23:13:45.817Z,100506.84
2023-01-13T23:16:23.755Z,100510.38
2023-01-13T23:18:51.286Z,100499.16
2023-01-13T23:21:26.429Z,100505.81
2023-01-13T23:23:54.487Z,100497.94
2023-01-13T23:26:22.676Z,100500.91
2023-01-13T23:28:50.655Z,100510.09
2023-01-13T23:31:21.619Z,100508.31
2023-01-13T23:33:49.483Z,100513.75
2023-01-13T23:36:23.672Z,100508.88
2023-01-13T23:38:52.110Z,100507.06
2023-01-13T23:41:25.029Z,100513.34
2023-01-13T23:43:58.988Z,100508.56
2023-01-13T23:46:35.985Z,100509.16
2023-01-13T23:49:04.180Z,100507.94
2023-01-13T23:51:31.979Z,100507.19
2023-01-13T23:53:59.831Z,100513.38
2023-01-13T23:56:30.414Z,100507.47
2023-01-13T23:58:58.784Z,100507.47
